YMA7002 YBRK-YSTW
Flight info
| Callsign | YMA7002 |
|---|---|
| Flight time | N/A |
| Altitude | 25000 |
| Route | RUROX DCT IRMOX DCT TW |
| Aircraft | DH8D/M-SDE2E3FGRY/H |
Departure
| Time | N/A |
|---|---|
| Airport | Rockhampton Airport (YBRK) |
Arrival
| Time | 2026-05-05 00:37 |
|---|---|
| Airport | Tamworth Airport (YSTW) |
| Time | Latitude | Longitude | Altitude | Speed | Heading |
|---|---|---|---|---|---|
| 2026-05-05 00:22 | -30.24582 | 150.74206 | 15067 ft | 321 kts | 185° |
| 2026-05-05 00:22 | -30.26799 | 150.74159 | 14747 ft | 319 kts | 185° |
| 2026-05-05 00:22 | -30.29010 | 150.74112 | 14425 ft | 317 kts | 185° |
| 2026-05-05 00:23 | -30.31219 | 150.74063 | 14102 ft | 316 kts | 185° |
| 2026-05-05 00:23 | -30.33417 | 150.74016 | 13781 ft | 314 kts | 185° |
| 2026-05-05 00:23 | -30.35604 | 150.73970 | 13458 ft | 313 kts | 184° |
| 2026-05-05 00:23 | -30.37773 | 150.73926 | 13140 ft | 311 kts | 184° |
| 2026-05-05 00:24 | -30.39920 | 150.73879 | 12825 ft | 309 kts | 185° |
| 2026-05-05 00:24 | -30.42079 | 150.73833 | 12508 ft | 307 kts | 184° |
| 2026-05-05 00:24 | -30.44216 | 150.73790 | 12194 ft | 305 kts | 184° |
| 2026-05-05 00:24 | -30.46311 | 150.73744 | 11888 ft | 304 kts | 184° |
| 2026-05-05 00:25 | -30.48432 | 150.73698 | 11577 ft | 302 kts | 184° |
| 2026-05-05 00:25 | -30.50509 | 150.73656 | 11272 ft | 300 kts | 184° |
| 2026-05-05 00:25 | -30.52600 | 150.73612 | 10965 ft | 298 kts | 184° |
| 2026-05-05 00:25 | -30.54687 | 150.73566 | 10658 ft | 296 kts | 184° |
| 2026-05-05 00:26 | -30.56716 | 150.73521 | 10359 ft | 294 kts | 184° |
| 2026-05-05 00:26 | -30.58777 | 150.73477 | 10058 ft | 292 kts | 184° |
| 2026-05-05 00:26 | -30.60817 | 150.73433 | 9760 ft | 291 kts | 184° |
| 2026-05-05 00:26 | -30.62834 | 150.73389 | 9464 ft | 289 kts | 184° |
| 2026-05-05 00:27 | -30.64839 | 150.73347 | 9168 ft | 285 kts | 184° |
| 2026-05-05 00:27 | -30.66810 | 150.73308 | 8880 ft | 281 kts | 184° |
| 2026-05-05 00:27 | -30.68743 | 150.73265 | 8597 ft | 278 kts | 184° |
| 2026-05-05 00:27 | -30.70675 | 150.73224 | 8317 ft | 276 kts | 184° |
| 2026-05-05 00:28 | -30.72571 | 150.73183 | 8037 ft | 271 kts | 183° |
| 2026-05-05 00:28 | -30.74433 | 150.73146 | 7762 ft | 265 kts | 183° |
| 2026-05-05 00:28 | -30.76248 | 150.73114 | 7494 ft | 255 kts | 183° |
| 2026-05-05 00:28 | -30.77995 | 150.73080 | 7239 ft | 247 kts | 183° |
| 2026-05-05 00:29 | -30.79698 | 150.73030 | 6989 ft | 239 kts | 186° |
| 2026-05-05 00:29 | -30.81321 | 150.72952 | 6753 ft | 231 kts | 185° |
| 2026-05-05 00:29 | -30.82914 | 150.72887 | 6519 ft | 224 kts | 185° |
| 2026-05-05 00:29 | -30.84442 | 150.72832 | 6295 ft | 217 kts | 185° |
| 2026-05-05 00:30 | -30.85925 | 150.72786 | 6072 ft | 206 kts | 184° |
| 2026-05-05 00:30 | -30.87304 | 150.72745 | 5861 ft | 189 kts | 187° |
| 2026-05-05 00:30 | -30.88504 | 150.72406 | 5686 ft | 169 kts | 205° |
| 2026-05-05 00:30 | -30.89534 | 150.71909 | 5496 ft | 150 kts | 206° |
| 2026-05-05 00:31 | -30.90472 | 150.71439 | 5374 ft | 142 kts | 208° |
| 2026-05-05 00:31 | -30.91361 | 150.70985 | 5228 ft | 139 kts | 207° |
| 2026-05-05 00:31 | -30.92238 | 150.70550 | 5078 ft | 132 kts | 207° |
| 2026-05-05 00:31 | -30.93072 | 150.70137 | 4940 ft | 131 kts | 207° |
| 2026-05-05 00:32 | -30.93919 | 150.69717 | 4795 ft | 130 kts | 206° |
| 2026-05-05 00:32 | -30.94767 | 150.69325 | 4647 ft | 134 kts | 196° |
| 2026-05-05 00:32 | -30.95683 | 150.69566 | 4378 ft | 142 kts | 144° |
| 2026-05-05 00:32 | -30.96369 | 150.70316 | 4230 ft | 133 kts | 137° |
| 2026-05-05 00:33 | -30.97025 | 150.71081 | 4018 ft | 134 kts | 137° |
| 2026-05-05 00:33 | -30.97676 | 150.71851 | 3876 ft | 134 kts | 137° |
| 2026-05-05 00:33 | -30.98339 | 150.72636 | 3787 ft | 135 kts | 137° |
| 2026-05-05 00:33 | -30.99005 | 150.73431 | 3631 ft | 140 kts | 137° |
| 2026-05-05 00:34 | -30.99680 | 150.74249 | 3450 ft | 143 kts | 136° |
| 2026-05-05 00:34 | -31.00359 | 150.75082 | 3247 ft | 140 kts | 136° |
| 2026-05-05 00:34 | -31.01017 | 150.75897 | 3053 ft | 136 kts | 136° |
| 2026-05-05 00:34 | -31.01660 | 150.76697 | 2868 ft | 132 kts | 136° |
| 2026-05-05 00:35 | -31.02288 | 150.77473 | 2701 ft | 133 kts | 137° |
| 2026-05-05 00:35 | -31.02937 | 150.78271 | 2526 ft | 135 kts | 136° |
| 2026-05-05 00:35 | -31.03577 | 150.79066 | 2345 ft | 135 kts | 137° |
| 2026-05-05 00:35 | -31.04221 | 150.79869 | 2167 ft | 134 kts | 136° |
| 2026-05-05 00:36 | -31.04835 | 150.80698 | 1958 ft | 137 kts | 131° |
| 2026-05-05 00:36 | -31.05419 | 150.81569 | 1786 ft | 135 kts | 133° |
| 2026-05-05 00:36 | -31.06051 | 150.82355 | 1611 ft | 132 kts | 136° |
| 2026-05-05 00:36 | -31.06667 | 150.83141 | 1435 ft | 130 kts | 135° |
| 2026-05-05 00:37 | -31.07282 | 150.83905 | 1325 ft | 129 kts | 138° |
| 2026-05-05 00:37 | -31.07838 | 150.84589 | 1319 ft | 93 kts | 131° |
| 2026-05-05 00:37 | -31.08102 | 150.84926 | 1333 ft | 0 kts | 134° |
| 2026-05-05 00:37 | -31.08109 | 150.84932 | 1334 ft | 7 kts | 149° |
| 2026-05-05 00:38 | -31.08136 | 150.84877 | 1334 ft | 14 kts | 326° |
| 2026-05-05 00:38 | -31.08093 | 150.84923 | 1333 ft | 17 kts | 113° |
| 2026-05-05 00:38 | -31.08202 | 150.85053 | 1340 ft | 19 kts | 146° |
| 2026-05-05 00:38 | -31.08292 | 150.85017 | 1345 ft | 11 kts | 220° |
| 2026-05-05 00:39 | -31.08341 | 150.84966 | 1347 ft | 7 kts | 224° |
| 2026-05-05 00:39 | -31.08365 | 150.84920 | 1347 ft | 6 kts | 281° |
| 2026-05-05 00:39 | -31.08366 | 150.84868 | 1346 ft | 6 kts | 230° |
| 2026-05-05 00:39 | -31.08383 | 150.84847 | 1347 ft | 0 kts | 227° |